CGZMA CYKF-CYXU
Flight info
| Callsign | CGZMA |
|---|---|
| Flight time | 0h 42m |
| Altitude | 2000 |
| Route | CYKF/32 |
| Aircraft |
Departure
| Time | 2026-05-06 23:01 |
|---|---|
| Airport | Region of Waterloo International Airport (CYKF) |
Arrival
| Time | 2026-05-06 23:43 |
|---|---|
| Airport | London International Airport (CYXU) |
| Time | Latitude | Longitude | Altitude | Speed | Heading |
|---|---|---|---|---|---|
| 2026-05-06 22:49 | 43.45478 | -80.38291 | 1034 ft | 0 kts | 213° |
| 2026-05-06 22:56 | 43.45477 | -80.38298 | 1034 ft | 0 kts | 285° |
| 2026-05-06 22:57 | 43.45479 | -80.38305 | 1034 ft | 4 kts | 313° |
| 2026-05-06 22:57 | 43.45547 | -80.38346 | 1034 ft | 15 kts | 16° |
| 2026-05-06 22:57 | 43.45599 | -80.38271 | 1034 ft | 15 kts | 62° |
| 2026-05-06 22:57 | 43.45552 | -80.38169 | 1034 ft | 14 kts | 129° |
| 2026-05-06 22:58 | 43.45514 | -80.38101 | 1034 ft | 0 kts | 126° |
| 2026-05-06 22:58 | 43.45505 | -80.38083 | 1034 ft | 0 kts | 124° |
| 2026-05-06 23:00 | 43.45503 | -80.38028 | 1034 ft | 14 kts | 49° |
| 2026-05-06 23:00 | 43.45571 | -80.37994 | 1033 ft | 8 kts | 310° |
| 2026-05-06 23:00 | 43.45575 | -80.37999 | 1033 ft | 1 kts | 317° |
| 2026-05-06 23:01 | 43.45794 | -80.38367 | 1123 ft | 90 kts | 308° |
| 2026-05-06 23:01 | 43.46189 | -80.39056 | 1544 ft | 91 kts | 308° |
| 2026-05-06 23:01 | 43.46467 | -80.39816 | 1897 ft | 90 kts | 285° |
| 2026-05-06 23:01 | 43.46367 | -80.40722 | 2067 ft | 106 kts | 258° |
| 2026-05-06 23:02 | 43.46019 | -80.41751 | 2098 ft | 125 kts | 248° |
| 2026-05-06 23:02 | 43.45481 | -80.42718 | 2202 ft | 133 kts | 235° |
| 2026-05-06 23:02 | 43.44841 | -80.43635 | 2224 ft | 132 kts | 232° |
| 2026-05-06 23:02 | 43.44158 | -80.44473 | 2277 ft | 129 kts | 226° |
| 2026-05-06 23:03 | 43.43470 | -80.45226 | 2397 ft | 124 kts | 225° |
| 2026-05-06 23:03 | 43.42772 | -80.45906 | 2477 ft | 125 kts | 224° |
| 2026-05-06 23:03 | 43.42063 | -80.46641 | 2486 ft | 127 kts | 226° |
| 2026-05-06 23:03 | 43.41374 | -80.47387 | 2545 ft | 126 kts | 229° |
| 2026-05-06 23:04 | 43.40723 | -80.48167 | 2572 ft | 128 kts | 230° |
| 2026-05-06 23:04 | 43.40034 | -80.49006 | 2507 ft | 133 kts | 229° |
| 2026-05-06 23:04 | 43.39336 | -80.49834 | 2510 ft | 132 kts | 229° |
| 2026-05-06 23:04 | 43.38638 | -80.50675 | 2494 ft | 133 kts | 229° |
| 2026-05-06 23:05 | 43.38006 | -80.51577 | 2511 ft | 131 kts | 231° |
| 2026-05-06 23:05 | 43.37470 | -80.52548 | 2511 ft | 127 kts | 242° |
| 2026-05-06 23:05 | 43.36951 | -80.53556 | 2510 ft | 134 kts | 241° |
| 2026-05-06 23:05 | 43.36352 | -80.54654 | 2511 ft | 151 kts | 237° |
| 2026-05-06 23:06 | 43.35696 | -80.55813 | 2513 ft | 156 kts | 239° |
| 2026-05-06 23:06 | 43.35022 | -80.56998 | 2476 ft | 156 kts | 239° |
| 2026-05-06 23:06 | 43.34367 | -80.58146 | 2475 ft | 149 kts | 237° |
| 2026-05-06 23:06 | 43.33746 | -80.59234 | 2479 ft | 145 kts | 239° |
| 2026-05-06 23:07 | 43.33129 | -80.60319 | 2475 ft | 143 kts | 237° |
| 2026-05-06 23:07 | 43.32516 | -80.61397 | 2484 ft | 146 kts | 238° |
| 2026-05-06 23:07 | 43.31872 | -80.62529 | 2486 ft | 154 kts | 237° |
| 2026-05-06 23:07 | 43.31206 | -80.63699 | 2498 ft | 157 kts | 236° |
| 2026-05-06 23:08 | 43.30529 | -80.64883 | 2497 ft | 158 kts | 237° |
| 2026-05-06 23:08 | 43.29848 | -80.66075 | 2498 ft | 159 kts | 238° |
| 2026-05-06 23:08 | 43.29161 | -80.67278 | 2499 ft | 161 kts | 238° |
| 2026-05-06 23:08 | 43.28467 | -80.68492 | 2495 ft | 162 kts | 237° |
| 2026-05-06 23:09 | 43.27773 | -80.69714 | 2498 ft | 162 kts | 237° |
| 2026-05-06 23:09 | 43.27112 | -80.70960 | 2491 ft | 160 kts | 241° |
| 2026-05-06 23:09 | 43.26466 | -80.72202 | 2490 ft | 160 kts | 240° |
| 2026-05-06 23:09 | 43.25813 | -80.73442 | 2493 ft | 160 kts | 240° |
| 2026-05-06 23:10 | 43.25161 | -80.74676 | 2494 ft | 160 kts | 238° |
| 2026-05-06 23:10 | 43.24505 | -80.75921 | 2496 ft | 162 kts | 239° |
| 2026-05-06 23:10 | 43.23847 | -80.77165 | 2498 ft | 162 kts | 239° |
| 2026-05-06 23:10 | 43.23190 | -80.78408 | 2497 ft | 163 kts | 240° |
| 2026-05-06 23:11 | 43.22523 | -80.79667 | 2494 ft | 162 kts | 241° |
| 2026-05-06 23:11 | 43.21860 | -80.80919 | 2501 ft | 163 kts | 239° |
| 2026-05-06 23:11 | 43.21193 | -80.82177 | 2500 ft | 162 kts | 242° |
| 2026-05-06 23:11 | 43.20532 | -80.83430 | 2502 ft | 163 kts | 242° |
| 2026-05-06 23:12 | 43.19867 | -80.84689 | 2504 ft | 163 kts | 239° |
| 2026-05-06 23:12 | 43.19198 | -80.85943 | 2505 ft | 163 kts | 242° |
| 2026-05-06 23:12 | 43.18760 | -80.86772 | 2505 ft | 162 kts | 239° |
| 2026-05-06 23:12 | 43.17873 | -80.88447 | 2504 ft | 163 kts | 239° |
| 2026-05-06 23:13 | 43.17218 | -80.89684 | 2506 ft | 162 kts | 239° |
| 2026-05-06 23:13 | 43.16553 | -80.90935 | 2503 ft | 163 kts | 239° |
| 2026-05-06 23:13 | 43.15884 | -80.92201 | 2505 ft | 164 kts | 240° |
| 2026-05-06 23:13 | 43.15213 | -80.93467 | 2506 ft | 164 kts | 238° |
| 2026-05-06 23:14 | 43.14541 | -80.94727 | 2505 ft | 164 kts | 238° |
| 2026-05-06 23:14 | 43.14095 | -80.95564 | 2504 ft | 163 kts | 237° |
| 2026-05-06 23:14 | 43.13446 | -80.96781 | 2495 ft | 146 kts | 238° |
| 2026-05-06 23:14 | 43.12892 | -80.97816 | 2490 ft | 127 kts | 240° |
| 2026-05-06 23:15 | 43.12398 | -80.98747 | 2492 ft | 116 kts | 240° |
| 2026-05-06 23:15 | 43.11934 | -80.99620 | 2492 ft | 111 kts | 240° |
| 2026-05-06 23:15 | 43.11488 | -81.00454 | 2494 ft | 106 kts | 242° |
| 2026-05-06 23:15 | 43.11056 | -81.01270 | 2451 ft | 107 kts | 244° |
| 2026-05-06 23:16 | 43.10616 | -81.02104 | 2403 ft | 109 kts | 241° |
| 2026-05-06 23:16 | 43.10165 | -81.02953 | 2346 ft | 112 kts | 242° |
| 2026-05-06 23:16 | 43.09706 | -81.03813 | 2298 ft | 113 kts | 239° |
| 2026-05-06 23:16 | 43.09242 | -81.04676 | 2239 ft | 112 kts | 242° |
| 2026-05-06 23:17 | 43.08785 | -81.05537 | 2186 ft | 111 kts | 242° |
| 2026-05-06 23:17 | 43.08348 | -81.06401 | 2134 ft | 110 kts | 250° |
| 2026-05-06 23:17 | 43.08417 | -81.07345 | 2070 ft | 104 kts | 312° |
| 2026-05-06 23:17 | 43.09073 | -81.07496 | 2000 ft | 107 kts | 28° |
| 2026-05-06 23:18 | 43.09402 | -81.06573 | 1850 ft | 120 kts | 87° |
| 2026-05-06 23:18 | 43.08976 | -81.05643 | 1895 ft | 120 kts | 149° |
| 2026-05-06 23:18 | 43.08225 | -81.05657 | 1906 ft | 107 kts | 222° |
| 2026-05-06 23:18 | 43.07889 | -81.06468 | 1897 ft | 97 kts | 278° |
| 2026-05-06 23:19 | 43.08274 | -81.07064 | 1906 ft | 90 kts | 353° |
| 2026-05-06 23:19 | 43.08881 | -81.06790 | 1896 ft | 95 kts | 26° |
| 2026-05-06 23:19 | 43.09081 | -81.05971 | 1899 ft | 101 kts | 109° |
| 2026-05-06 23:19 | 43.08522 | -81.05499 | 1892 ft | 101 kts | 184° |
| 2026-05-06 23:20 | 43.07895 | -81.05836 | 1903 ft | 98 kts | 223° |
| 2026-05-06 23:20 | 43.07257 | -81.06182 | 1872 ft | 103 kts | 223° |
| 2026-05-06 23:20 | 43.06860 | -81.06928 | 1895 ft | 97 kts | 250° |
| 2026-05-06 23:20 | 43.06562 | -81.07751 | 1898 ft | 95 kts | 254° |
| 2026-05-06 23:21 | 43.06263 | -81.08551 | 1905 ft | 95 kts | 250° |
| 2026-05-06 23:21 | 43.05954 | -81.09360 | 1908 ft | 97 kts | 250° |
| 2026-05-06 23:21 | 43.05631 | -81.10189 | 1903 ft | 100 kts | 248° |
| 2026-05-06 23:21 | 43.05299 | -81.11035 | 1907 ft | 101 kts | 246° |
| 2026-05-06 23:22 | 43.04966 | -81.11880 | 1911 ft | 102 kts | 250° |
| 2026-05-06 23:22 | 43.04596 | -81.12740 | 1888 ft | 106 kts | 243° |
| 2026-05-06 23:22 | 43.04125 | -81.13511 | 1884 ft | 108 kts | 226° |
| 2026-05-06 23:22 | 43.03405 | -81.13758 | 1874 ft | 116 kts | 164° |
| 2026-05-06 23:23 | 43.02779 | -81.13096 | 1855 ft | 115 kts | 127° |
| 2026-05-06 23:23 | 43.02189 | -81.12353 | 1828 ft | 117 kts | 137° |
| 2026-05-06 23:23 | 43.01613 | -81.11620 | 1925 ft | 113 kts | 134° |
| 2026-05-06 23:23 | 43.01038 | -81.10889 | 1921 ft | 117 kts | 139° |
| 2026-05-06 23:24 | 43.00389 | -81.10211 | 1883 ft | 117 kts | 141° |
| 2026-05-06 23:24 | 42.99695 | -81.09652 | 1892 ft | 117 kts | 167° |
| 2026-05-06 23:24 | 42.99005 | -81.10015 | 1890 ft | 106 kts | 233° |
| 2026-05-06 23:24 | 42.98921 | -81.10837 | 1920 ft | 86 kts | 308° |
| 2026-05-06 23:25 | 42.99406 | -81.11306 | 1702 ft | 83 kts | 334° |
| 2026-05-06 23:25 | 42.99944 | -81.11628 | 1510 ft | 88 kts | 335° |
| 2026-05-06 23:25 | 43.00511 | -81.11959 | 1394 ft | 87 kts | 334° |
| 2026-05-06 23:25 | 43.00990 | -81.12294 | 1333 ft | 71 kts | 330° |
| 2026-05-06 23:26 | 43.01377 | -81.12637 | 1210 ft | 65 kts | 320° |
| 2026-05-06 23:26 | 43.01717 | -81.12996 | 1138 ft | 60 kts | 326° |
| 2026-05-06 23:26 | 43.02084 | -81.12765 | 1251 ft | 83 kts | 60° |
| 2026-05-06 23:26 | 43.01881 | -81.12050 | 1264 ft | 86 kts | 154° |
| 2026-05-06 23:27 | 43.01455 | -81.11506 | 1407 ft | 89 kts | 122° |
| 2026-05-06 23:27 | 43.01155 | -81.10761 | 1774 ft | 84 kts | 100° |
| 2026-05-06 23:27 | 43.00955 | -81.10042 | 2030 ft | 85 kts | 123° |
| 2026-05-06 23:27 | 43.00492 | -81.09523 | 2076 ft | 90 kts | 149° |
| 2026-05-06 23:28 | 42.99981 | -81.09044 | 2078 ft | 89 kts | 134° |
| 2026-05-06 23:28 | 42.99601 | -81.08419 | 2075 ft | 83 kts | 117° |
| 2026-05-06 23:28 | 42.99271 | -81.07770 | 2080 ft | 82 kts | 127° |
| 2026-05-06 23:28 | 42.98733 | -81.07693 | 2202 ft | 88 kts | 207° |
| 2026-05-06 23:29 | 42.98277 | -81.08170 | 2145 ft | 82 kts | 250° |
| 2026-05-06 23:29 | 42.98289 | -81.08809 | 1991 ft | 66 kts | 316° |
| 2026-05-06 23:29 | 42.98615 | -81.09275 | 1815 ft | 66 kts | 320° |
| 2026-05-06 23:29 | 42.98955 | -81.09683 | 1680 ft | 65 kts | 320° |
| 2026-05-06 23:30 | 42.99355 | -81.10160 | 1602 ft | 92 kts | 319° |
| 2026-05-06 23:30 | 42.99875 | -81.10785 | 1599 ft | 101 kts | 320° |
| 2026-05-06 23:30 | 43.00350 | -81.11337 | 1487 ft | 82 kts | 321° |
| 2026-05-06 23:30 | 43.00752 | -81.11808 | 1389 ft | 73 kts | 318° |
| 2026-05-06 23:31 | 43.01110 | -81.12234 | 1296 ft | 60 kts | 317° |
| 2026-05-06 23:31 | 43.01473 | -81.12674 | 1209 ft | 79 kts | 316° |
| 2026-05-06 23:31 | 43.01850 | -81.13135 | 1109 ft | 65 kts | 315° |
| 2026-05-06 23:31 | 43.02257 | -81.13288 | 1208 ft | 72 kts | 13° |
| 2026-05-06 23:32 | 43.02494 | -81.12627 | 1262 ft | 90 kts | 97° |
| 2026-05-06 23:32 | 43.02048 | -81.12127 | 1276 ft | 84 kts | 187° |
| 2026-05-06 23:32 | 43.01614 | -81.12533 | 1349 ft | 77 kts | 254° |
| 2026-05-06 23:32 | 43.01759 | -81.13133 | 1206 ft | 72 kts | 321° |
| 2026-05-06 23:33 | 43.02152 | -81.13501 | 1018 ft | 66 kts | 314° |
| 2026-05-06 23:33 | 43.02506 | -81.13932 | 914 ft | 70 kts | 315° |
| 2026-05-06 23:33 | 43.02825 | -81.14314 | 902 ft | 54 kts | 315° |
| 2026-05-06 23:33 | 43.03276 | -81.14856 | 1088 ft | 104 kts | 317° |
| 2026-05-06 23:34 | 43.03817 | -81.15509 | 1496 ft | 104 kts | 318° |
| 2026-05-06 23:34 | 43.04338 | -81.16154 | 1828 ft | 94 kts | 320° |
| 2026-05-06 23:34 | 43.04829 | -81.16761 | 1892 ft | 93 kts | 320° |
| 2026-05-06 23:34 | 43.05292 | -81.17323 | 2011 ft | 86 kts | 328° |
| 2026-05-06 23:35 | 43.05848 | -81.17115 | 2096 ft | 104 kts | 48° |
| 2026-05-06 23:35 | 43.06292 | -81.16254 | 2092 ft | 116 kts | 50° |
| 2026-05-06 23:35 | 43.06750 | -81.15284 | 2078 ft | 128 kts | 70° |
| 2026-05-06 23:35 | 43.06549 | -81.14105 | 2083 ft | 137 kts | 129° |
| 2026-05-06 23:36 | 43.05835 | -81.13243 | 2087 ft | 137 kts | 140° |
| 2026-05-06 23:36 | 43.05104 | -81.12411 | 2086 ft | 140 kts | 140° |
| 2026-05-06 23:36 | 43.04347 | -81.11551 | 2082 ft | 141 kts | 140° |
| 2026-05-06 23:36 | 43.03591 | -81.10699 | 2082 ft | 141 kts | 140° |
| 2026-05-06 23:37 | 43.02830 | -81.09847 | 2083 ft | 142 kts | 139° |
| 2026-05-06 23:37 | 43.02072 | -81.08977 | 2091 ft | 143 kts | 136° |
| 2026-05-06 23:37 | 43.01349 | -81.08042 | 2087 ft | 144 kts | 135° |
| 2026-05-06 23:37 | 43.00627 | -81.07098 | 2084 ft | 143 kts | 135° |
| 2026-05-06 23:38 | 43.00006 | -81.06295 | 2067 ft | 109 kts | 137° |
| 2026-05-06 23:38 | 42.99486 | -81.05630 | 2103 ft | 102 kts | 136° |
| 2026-05-06 23:38 | 42.98773 | -81.05435 | 2100 ft | 114 kts | 204° |
| 2026-05-06 23:38 | 42.98185 | -81.06156 | 2079 ft | 116 kts | 233° |
| 2026-05-06 23:39 | 42.97660 | -81.06872 | 2067 ft | 89 kts | 235° |
| 2026-05-06 23:39 | 42.97698 | -81.07415 | 2183 ft | 57 kts | 331° |
| 2026-05-06 23:39 | 42.98035 | -81.07994 | 1956 ft | 86 kts | 307° |
| 2026-05-06 23:39 | 42.98363 | -81.08595 | 1832 ft | 64 kts | 310° |
| 2026-05-06 23:40 | 42.98612 | -81.09136 | 1926 ft | 71 kts | 310° |
| 2026-05-06 23:40 | 42.98912 | -81.09696 | 1827 ft | 71 kts | 320° |
| 2026-05-06 23:40 | 42.99294 | -81.10112 | 1684 ft | 69 kts | 323° |
| 2026-05-06 23:40 | 42.99653 | -81.10507 | 1600 ft | 66 kts | 320° |
| 2026-05-06 23:41 | 42.99992 | -81.10921 | 1532 ft | 66 kts | 319° |
| 2026-05-06 23:41 | 43.00325 | -81.11343 | 1481 ft | 65 kts | 320° |
| 2026-05-06 23:41 | 43.00662 | -81.11712 | 1381 ft | 65 kts | 317° |
| 2026-05-06 23:41 | 43.01006 | -81.12126 | 1284 ft | 65 kts | 316° |
| 2026-05-06 23:42 | 43.01343 | -81.12528 | 1204 ft | 63 kts | 315° |
| 2026-05-06 23:42 | 43.01683 | -81.12927 | 1134 ft | 66 kts | 317° |
| 2026-05-06 23:42 | 43.02040 | -81.13360 | 1040 ft | 68 kts | 316° |
| 2026-05-06 23:42 | 43.02365 | -81.13754 | 941 ft | 58 kts | 313° |
| 2026-05-06 23:43 | 43.02655 | -81.14114 | 901 ft | 54 kts | 315° |
| 2026-05-06 23:43 | 43.02920 | -81.14486 | 900 ft | 52 kts | 292° |
| 2026-05-06 23:43 | 43.02809 | -81.14632 | 901 ft | 35 kts | 120° |
| 2026-05-06 23:43 | 43.02607 | -81.14518 | 902 ft | 30 kts | 173° |